Time;durP1;ratioP1;P1;durP2;ratioP2;P2;SDS_P1;SDS_P2;PMS_P1;PMS_P2;Temp;Humidity;BMP_temperature;BMP_pressure;BME280_temperature;BME280_humidity;BME280_pressure;Samples;Min_cycle;Max_cycle;Signal;HPM_P1;HPM_P2
2023/12/25 00:01:11;;;;;;;4.53;1.60;;;;;;;;;;4989139;28;20842;-76
2023/12/25 00:03:37;;;;;;;4.10;1.40;;;;;;;;;;4987780;28;20220;-76
2023/12/25 00:06:03;;;;;;;3.30;1.57;;;;;;;;;;4972715;28;20287;-76
2023/12/25 00:08:29;;;;;;;4.27;1.40;;;;;;;;;;4985738;28;20278;-76
2023/12/25 00:10:55;;;;;;;3.10;1.33;;;;;;;;;;4987447;28;20203;-76
2023/12/25 00:13:22;;;;;;;2.33;1.13;;;;;;;;;;4989054;28;20219;-75
2023/12/25 00:15:48;;;;;;;3.67;2.20;;;;;;;;;;4971490;28;20191;-75
2023/12/25 00:18:14;;;;;;;4.83;1.40;;;;;;;;;;4987986;28;20211;-75
2023/12/25 00:20:42;;;;;;;2.57;1.20;;;;;;;;;;4989446;28;20210;-75
2023/12/25 00:23:08;;;;;;;2.40;1.20;;;;;;;;;;4989807;28;20184;-75
2023/12/25 00:25:34;;;;;;;2.53;1.10;;;;;;;;;;4988741;28;20307;-75
2023/12/25 00:28:00;;;;;;;1.90;1.20;;;;;;;;;;4986347;28;20247;-75
2023/12/25 00:30:26;;;;;;;3.83;1.10;;;;;;;;;;4986263;28;20311;-75
2023/12/25 00:32:53;;;;;;;3.57;1.30;;;;;;;;;;4986272;28;20741;-77
2023/12/25 00:35:19;;;;;;;2.33;1.00;;;;;;;;;;4983776;28;20561;-75
2023/12/25 00:37:45;;;;;;;1.73;1.30;;;;;;;;;;4986494;28;20217;-75
2023/12/25 00:40:11;;;;;;;2.77;1.20;;;;;;;;;;4987631;28;20215;-75
2023/12/25 00:42:37;;;;;;;1.37;0.90;;;;;;;;;;4987822;28;20192;-75
2023/12/25 00:45:03;;;;;;;1.77;0.90;;;;;;;;;;4987007;28;20215;-75
2023/12/25 00:47:29;;;;;;;1.80;1.03;;;;;;;;;;5000271;28;20191;-75
2023/12/25 00:49:56;;;;;;;2.20;0.87;;;;;;;;;;4987458;28;20184;-75
2023/12/25 00:52:22;;;;;;;2.20;1.00;;;;;;;;;;4987759;28;20235;-75
2023/12/25 00:54:48;;;;;;;2.13;1.13;;;;;;;;;;4989518;28;20263;-75
2023/12/25 00:57:15;;;;;;;1.57;1.00;;;;;;;;;;4986417;28;20203;-75
2023/12/25 00:59:41;;;;;;;1.83;0.87;;;;;;;;;;4986852;28;20742;-75
2023/12/25 01:02:07;;;;;;;2.40;1.00;;;;;;;;;;4989026;28;20247;-75
2023/12/25 01:04:34;;;;;;;1.43;1.00;;;;;;;;;;4987321;28;20227;-75
2023/12/25 01:07:01;;;;;;;3.97;1.00;;;;;;;;;;4989667;28;20661;-76
2023/12/25 01:09:27;;;;;;;1.03;0.77;;;;;;;;;;4987912;28;20191;-76
2023/12/25 01:11:53;;;;;;;1.03;0.90;;;;;;;;;;4989059;28;20318;-76
2023/12/25 01:14:20;;;;;;;1.23;0.80;;;;;;;;;;4990340;28;20257;-75
2023/12/25 01:16:46;;;;;;;2.20;0.90;;;;;;;;;;4988125;28;20424;-75
2023/12/25 01:19:12;;;;;;;2.43;0.97;;;;;;;;;;4988189;28;20660;-75
2023/12/25 01:21:38;;;;;;;3.27;0.90;;;;;;;;;;4987618;28;20208;-75
2023/12/25 01:24:05;;;;;;;2.03;0.80;;;;;;;;;;4984248;28;20193;-76
2023/12/25 01:26:31;;;;;;;1.30;0.97;;;;;;;;;;4988357;28;20203;-75
2023/12/25 01:28:57;;;;;;;0.77;0.73;;;;;;;;;;4988655;28;20191;-75
2023/12/25 01:31:24;;;;;;;1.13;0.87;;;;;;;;;;4986889;28;20287;-75
2023/12/25 01:33:51;;;;;;;2.27;1.00;;;;;;;;;;4987348;28;20198;-75
2023/12/25 01:36:17;;;;;;;2.40;0.80;;;;;;;;;;4988903;28;20210;-76
2023/12/25 01:38:43;;;;;;;0.93;0.70;;;;;;;;;;4987918;28;20221;-76
2023/12/25 01:41:09;;;;;;;1.23;0.80;;;;;;;;;;4985523;28;20452;-75
2023/12/25 01:43:35;;;;;;;1.47;0.80;;;;;;;;;;4985540;28;20203;-75
2023/12/25 01:46:01;;;;;;;1.63;0.70;;;;;;;;;;4987836;28;20677;-75
2023/12/25 01:48:28;;;;;;;1.00;0.70;;;;;;;;;;4991010;28;20237;-75
2023/12/25 01:50:56;;;;;;;2.33;0.93;;;;;;;;;;4987532;28;20610;-75
2023/12/25 01:53:22;;;;;;;1.23;0.80;;;;;;;;;;4986696;28;20180;-76
2023/12/25 01:55:50;;;;;;;1.93;0.80;;;;;;;;;;4989238;28;20469;-75
2023/12/25 01:58:16;;;;;;;1.07;0.80;;;;;;;;;;4972260;28;20275;-75
2023/12/25 02:00:42;;;;;;;1.93;0.93;;;;;;;;;;4989098;28;20211;-76
2023/12/25 02:03:09;;;;;;;2.07;1.30;;;;;;;;;;4993254;28;20581;-75
2023/12/25 02:05:35;;;;;;;1.07;0.90;;;;;;;;;;4997039;28;20266;-75
2023/12/25 02:08:02;;;;;;;1.70;0.90;;;;;;;;;;4979751;28;20342;-75
2023/12/25 02:10:29;;;;;;;1.30;0.90;;;;;;;;;;4986103;28;20263;-75
2023/12/25 02:12:55;;;;;;;0.70;0.60;;;;;;;;;;4984423;28;20273;-75
2023/12/25 02:15:22;;;;;;;2.20;0.80;;;;;;;;;;4990238;28;20199;-76
2023/12/25 02:17:49;;;;;;;4.10;0.93;;;;;;;;;;5005155;28;20219;-76
2023/12/25 02:20:16;;;;;;;0.90;0.70;;;;;;;;;;4985239;28;20214;-75
2023/12/25 02:22:42;;;;;;;1.53;0.70;;;;;;;;;;4987141;28;20602;-76
2023/12/25 02:25:12;;;;;;;0.60;0.60;;;;;;;;;;4988767;28;20672;-75
2023/12/25 02:27:38;;;;;;;1.17;0.70;;;;;;;;;;4989038;28;20191;-75
2023/12/25 02:30:05;;;;;;;0.87;0.67;;;;;;;;;;4991130;28;20210;-75
2023/12/25 02:32:31;;;;;;;0.90;0.70;;;;;;;;;;4970084;28;20670;-75
2023/12/25 02:34:57;;;;;;;0.70;0.70;;;;;;;;;;4990572;28;20210;-75
2023/12/25 02:37:23;;;;;;;1.07;0.63;;;;;;;;;;4968173;28;20188;-76
2023/12/25 02:39:50;;;;;;;0.60;0.60;;;;;;;;;;4985069;28;20196;-75
2023/12/25 02:42:16;;;;;;;0.60;0.60;;;;;;;;;;4988894;28;20207;-75
2023/12/25 02:44:42;;;;;;;1.07;0.70;;;;;;;;;;4983190;28;20620;-75
2023/12/25 02:47:08;;;;;;;1.83;0.70;;;;;;;;;;5003817;28;20183;-75
2023/12/25 02:49:35;;;;;;;0.67;0.67;;;;;;;;;;4990730;28;20192;-75
2023/12/25 02:52:02;;;;;;;1.60;0.57;;;;;;;;;;4985201;28;20208;-76
2023/12/25 02:54:28;;;;;;;0.60;0.60;;;;;;;;;;5007765;28;20476;-75
2023/12/25 02:56:55;;;;;;;0.67;0.67;;;;;;;;;;4985855;28;20790;-75
2023/12/25 02:59:21;;;;;;;0.60;0.60;;;;;;;;;;4984371;28;20188;-75
2023/12/25 03:01:50;;;;;;;0.60;0.60;;;;;;;;;;4969810;28;20222;-75
2023/12/25 03:04:17;;;;;;;0.50;0.50;;;;;;;;;;4984938;28;20192;-75
2023/12/25 03:06:46;;;;;;;0.90;0.50;;;;;;;;;;4983991;28;20559;-75
2023/12/25 03:09:18;;;;;;;0.50;0.50;;;;;;;;;;4984417;28;20676;-76
2023/12/25 03:11:45;;;;;;;1.27;0.60;;;;;;;;;;4987498;28;20529;-75
2023/12/25 03:14:12;;;;;;;0.60;0.60;;;;;;;;;;4985763;28;20226;-75
2023/12/25 03:16:38;;;;;;;0.97;0.50;;;;;;;;;;4984534;28;20219;-76
2023/12/25 03:19:07;;;;;;;0.90;0.60;;;;;;;;;;4950474;28;20697;-75
2023/12/25 03:21:35;;;;;;;0.50;0.50;;;;;;;;;;4987849;28;20704;-75
2023/12/25 03:24:04;;;;;;;0.60;0.60;;;;;;;;;;4968114;28;20552;-75
2023/12/25 03:26:33;;;;;;;0.60;0.57;;;;;;;;;;4987118;28;20668;-75
2023/12/25 03:29:00;;;;;;;0.50;0.50;;;;;;;;;;4990397;28;20192;-76
2023/12/25 03:31:26;;;;;;;0.60;0.60;;;;;;;;;;4990089;28;20283;-75
2023/12/25 03:33:58;;;;;;;1.13;0.80;;;;;;;;;;4988106;28;20192;-75
2023/12/25 03:36:25;;;;;;;1.00;0.83;;;;;;;;;;4975628;28;20187;-75
2023/12/25 03:38:54;;;;;;;0.50;0.50;;;;;;;;;;4990445;28;20191;-75
2023/12/25 03:41:20;;;;;;;0.60;0.50;;;;;;;;;;4992241;28;20228;-75
2023/12/25 03:43:47;;;;;;;0.87;0.63;;;;;;;;;;4988934;28;20222;-75
2023/12/25 03:46:22;;;;;;;0.70;0.70;;;;;;;;;;4993357;28;20621;-75
2023/12/25 03:48:50;;;;;;;0.83;0.60;;;;;;;;;;4992420;28;20604;-75
2023/12/25 03:51:19;;;;;;;0.40;0.40;;;;;;;;;;4989989;28;20218;-75
2023/12/25 03:53:47;;;;;;;0.40;0.40;;;;;;;;;;4992015;28;20192;-75
2023/12/25 03:56:17;;;;;;;0.50;0.50;;;;;;;;;;4989657;28;20192;-75
2023/12/25 03:58:44;;;;;;;0.50;0.50;;;;;;;;;;4989755;28;20199;-75
2023/12/25 04:01:12;;;;;;;0.50;0.50;;;;;;;;;;4990455;28;20228;-75
2023/12/25 04:03:38;;;;;;;0.40;0.40;;;;;;;;;;4994576;28;20242;-75
2023/12/25 04:06:05;;;;;;;0.50;0.50;;;;;;;;;;4992600;28;20216;-75
2023/12/25 04:08:32;;;;;;;0.43;0.43;;;;;;;;;;4987091;28;20290;-75
2023/12/25 04:11:06;;;;;;;2.07;0.60;;;;;;;;;;4988170;28;20277;-76
2023/12/25 04:13:36;;;;;;;0.70;0.50;;;;;;;;;;4989729;28;20195;-75
2023/12/25 04:16:03;;;;;;;0.50;0.50;;;;;;;;;;4994931;28;20521;-75
2023/12/25 04:18:33;;;;;;;0.80;0.60;;;;;;;;;;4988148;28;20183;-75
2023/12/25 04:21:00;;;;;;;1.10;0.80;;;;;;;;;;4992585;28;20208;-76
2023/12/25 04:23:28;;;;;;;0.50;0.50;;;;;;;;;;4988023;28;20200;-75
2023/12/25 04:25:58;;;;;;;0.50;0.50;;;;;;;;;;4989776;28;20266;-76
2023/12/25 04:28:24;;;;;;;1.20;0.53;;;;;;;;;;4985167;28;20215;-76
2023/12/25 04:30:51;;;;;;;0.50;0.50;;;;;;;;;;4989527;28;20204;-77
2023/12/25 04:33:18;;;;;;;0.50;0.50;;;;;;;;;;4991069;28;20200;-75
2023/12/25 04:35:44;;;;;;;0.90;0.60;;;;;;;;;;4991029;28;20196;-75
2023/12/25 04:38:11;;;;;;;0.50;0.50;;;;;;;;;;4989434;28;20195;-76
2023/12/25 04:40:38;;;;;;;0.40;0.40;;;;;;;;;;4988785;28;20227;-75
2023/12/25 04:43:05;;;;;;;0.50;0.50;;;;;;;;;;4987089;28;20219;-75
2023/12/25 04:45:32;;;;;;;0.93;0.57;;;;;;;;;;4986244;28;20571;-75
2023/12/25 04:48:01;;;;;;;0.70;0.40;;;;;;;;;;5007560;28;20195;-75
2023/12/25 04:50:28;;;;;;;0.50;0.50;;;;;;;;;;4987168;28;20287;-75
2023/12/25 04:53:00;;;;;;;0.30;0.30;;;;;;;;;;4991365;28;20593;-75
2023/12/25 04:55:29;;;;;;;0.50;0.50;;;;;;;;;;4967432;28;20669;-75
2023/12/25 04:57:57;;;;;;;0.53;0.43;;;;;;;;;;4975669;28;20289;-75
2023/12/25 05:00:24;;;;;;;0.47;0.47;;;;;;;;;;4987732;28;20611;-75
2023/12/25 05:02:57;;;;;;;0.50;0.50;;;;;;;;;;4992387;28;20581;-75
2023/12/25 05:05:26;;;;;;;0.33;0.33;;;;;;;;;;4985602;28;20510;-75
2023/12/25 05:07:57;;;;;;;0.40;0.40;;;;;;;;;;4987080;28;20712;-75
2023/12/25 05:10:24;;;;;;;0.50;0.40;;;;;;;;;;4987460;28;20204;-75
2023/12/25 05:12:57;;;;;;;0.77;0.50;;;;;;;;;;4992620;28;20920;-76
2023/12/25 05:15:23;;;;;;;0.40;0.40;;;;;;;;;;4986903;28;20271;-75
2023/12/25 05:17:53;;;;;;;0.40;0.40;;;;;;;;;;4983282;28;20187;-75
2023/12/25 05:20:24;;;;;;;0.90;0.37;;;;;;;;;;4982267;28;20208;-75
2023/12/25 05:22:53;;;;;;;0.77;0.40;;;;;;;;;;4984898;28;20276;-76
2023/12/25 05:25:23;;;;;;;0.40;0.40;;;;;;;;;;4985998;28;20212;-75
2023/12/25 05:27:49;;;;;;;0.40;0.40;;;;;;;;;;4989224;28;20176;-75
2023/12/25 05:30:18;;;;;;;0.50;0.50;;;;;;;;;;4991117;28;20318;-75
2023/12/25 05:32:45;;;;;;;0.60;0.40;;;;;;;;;;4991284;28;20196;-75
2023/12/25 05:35:14;;;;;;;0.80;0.40;;;;;;;;;;4989745;28;20191;-75
2023/12/25 05:37:43;;;;;;;0.83;0.53;;;;;;;;;;4988907;28;20210;-77
2023/12/25 05:40:12;;;;;;;0.63;0.50;;;;;;;;;;4987576;28;20193;-75
2023/12/25 05:42:41;;;;;;;0.53;0.50;;;;;;;;;;4988133;28;20701;-75
2023/12/25 05:45:08;;;;;;;2.00;0.60;;;;;;;;;;4986264;28;20282;-75
2023/12/25 05:47:39;;;;;;;0.40;0.40;;;;;;;;;;4986634;28;20188;-75
2023/12/25 05:50:09;;;;;;;0.43;0.43;;;;;;;;;;4986021;28;20184;-75
2023/12/25 05:52:36;;;;;;;0.87;0.60;;;;;;;;;;4986153;28;20566;-75
2023/12/25 05:55:02;;;;;;;1.17;0.50;;;;;;;;;;4987506;28;20195;-76
2023/12/25 05:57:29;;;;;;;0.67;0.50;;;;;;;;;;4985495;28;20270;-76
2023/12/25 05:59:55;;;;;;;0.60;0.60;;;;;;;;;;4984310;28;20184;-76
2023/12/25 06:02:21;;;;;;;1.50;0.50;;;;;;;;;;4983060;28;20251;-76
2023/12/25 06:04:47;;;;;;;1.27;0.40;;;;;;;;;;4986497;28;20263;-76
2023/12/25 06:07:13;;;;;;;0.40;0.40;;;;;;;;;;4968757;28;20195;-76
2023/12/25 06:09:39;;;;;;;0.50;0.43;;;;;;;;;;4985362;28;20188;-76
2023/12/25 06:12:06;;;;;;;0.50;0.50;;;;;;;;;;4983907;28;21499;-77
2023/12/25 06:14:32;;;;;;;0.40;0.40;;;;;;;;;;4972161;28;20242;-75
2023/12/25 06:16:58;;;;;;;0.40;0.40;;;;;;;;;;4990427;28;20180;-78
2023/12/25 06:19:24;;;;;;;0.37;0.37;;;;;;;;;;4988693;28;20192;-80
2023/12/25 06:21:50;;;;;;;0.50;0.50;;;;;;;;;;4983509;28;20222;-79
2023/12/25 06:24:17;;;;;;;0.60;0.50;;;;;;;;;;4986279;28;20837;-80
2023/12/25 06:26:43;;;;;;;0.57;0.57;;;;;;;;;;4983084;28;20207;-78
2023/12/25 06:29:09;;;;;;;0.60;0.60;;;;;;;;;;4985454;28;20188;-78
2023/12/25 06:31:35;;;;;;;0.40;0.40;;;;;;;;;;4982751;28;20367;-78
2023/12/25 06:34:02;;;;;;;0.50;0.50;;;;;;;;;;4982877;28;20929;-79
2023/12/25 06:36:28;;;;;;;0.60;0.60;;;;;;;;;;4990672;28;20790;-79
2023/12/25 06:38:54;;;;;;;0.50;0.50;;;;;;;;;;4971107;28;20195;-78
2023/12/25 06:41:21;;;;;;;0.63;0.63;;;;;;;;;;5003881;28;20339;-79
2023/12/25 06:43:47;;;;;;;0.57;0.57;;;;;;;;;;4986446;28;20198;-78
2023/12/25 06:46:13;;;;;;;0.50;0.50;;;;;;;;;;5005250;28;20239;-79
2023/12/25 06:48:39;;;;;;;0.60;0.60;;;;;;;;;;5000193;28;20184;-79
2023/12/25 06:51:08;;;;;;;0.70;0.60;;;;;;;;;;4993785;28;20374;-79
2023/12/25 06:53:34;;;;;;;0.77;0.57;;;;;;;;;;5013307;28;20180;-79
2023/12/25 06:56:01;;;;;;;0.73;0.70;;;;;;;;;;4999156;28;20267;-79
2023/12/25 06:58:27;;;;;;;0.60;0.60;;;;;;;;;;4997774;28;20450;-78
2023/12/25 07:00:53;;;;;;;1.90;0.87;;;;;;;;;;4995925;28;20234;-79
2023/12/25 07:03:19;;;;;;;1.27;0.70;;;;;;;;;;4994118;28;20191;-79
2023/12/25 07:05:48;;;;;;;1.43;0.73;;;;;;;;;;4993542;28;20230;-79
2023/12/25 07:08:14;;;;;;;0.97;0.80;;;;;;;;;;4976503;28;20215;-78
2023/12/25 07:10:43;;;;;;;0.93;0.80;;;;;;;;;;4992036;28;20195;-78
2023/12/25 07:13:09;;;;;;;0.70;0.70;;;;;;;;;;5008472;28;20191;-79
2023/12/25 07:15:38;;;;;;;2.00;0.83;;;;;;;;;;4990269;28;20195;-79
2023/12/25 07:18:09;;;;;;;1.20;1.00;;;;;;;;;;4990765;28;20184;-79
2023/12/25 07:20:37;;;;;;;1.63;1.13;;;;;;;;;;4976035;28;20691;-79
2023/12/25 07:23:03;;;;;;;1.70;1.10;;;;;;;;;;4989075;28;20191;-79
2023/12/25 07:25:29;;;;;;;1.70;1.20;;;;;;;;;;4989158;28;20211;-78
2023/12/25 07:27:55;;;;;;;1.00;0.90;;;;;;;;;;4986446;28;20184;-75
2023/12/25 07:30:21;;;;;;;1.40;0.90;;;;;;;;;;4986028;28;20208;-77
2023/12/25 07:32:48;;;;;;;1.90;1.00;;;;;;;;;;5004692;28;20202;-76
2023/12/25 07:35:14;;;;;;;1.40;0.80;;;;;;;;;;4959449;28;20684;-77
2023/12/25 07:37:40;;;;;;;1.10;1.00;;;;;;;;;;4991195;28;20196;-77
2023/12/25 07:40:07;;;;;;;1.57;1.37;;;;;;;;;;4991642;28;20192;-78
2023/12/25 07:42:33;;;;;;;2.57;1.20;;;;;;;;;;4992713;28;20196;-78
2023/12/25 07:44:59;;;;;;;2.50;1.30;;;;;;;;;;4991921;28;20195;-78
2023/12/25 07:47:25;;;;;;;1.90;1.30;;;;;;;;;;4974225;28;20211;-80
2023/12/25 07:49:52;;;;;;;2.73;1.50;;;;;;;;;;4990385;28;20195;-78
2023/12/25 07:52:19;;;;;;;4.17;2.07;;;;;;;;;;4989723;28;20223;-76
2023/12/25 07:54:45;;;;;;;2.63;1.80;;;;;;;;;;4991093;28;20259;-75
2023/12/25 07:57:11;;;;;;;2.73;1.73;;;;;;;;;;4987230;28;20188;-76
2023/12/25 07:59:37;;;;;;;4.57;2.10;;;;;;;;;;4987481;28;20172;-75
2023/12/25 08:02:03;;;;;;;2.23;1.60;;;;;;;;;;4986447;28;20238;-76
2023/12/25 08:04:29;;;;;;;2.03;0.97;;;;;;;;;;4987377;28;20183;-79
2023/12/25 08:06:55;;;;;;;2.93;1.00;;;;;;;;;;4991385;28;20215;-79
2023/12/25 08:09:22;;;;;;;1.23;0.90;;;;;;;;;;4991166;28;20199;-78
2023/12/25 08:11:48;;;;;;;3.57;1.10;;;;;;;;;;4969975;28;20691;-77
2023/12/25 08:14:14;;;;;;;2.90;0.97;;;;;;;;;;4988555;28;20200;-78
2023/12/25 08:16:40;;;;;;;2.30;0.97;;;;;;;;;;4991633;28;20510;-78
2023/12/25 08:19:06;;;;;;;3.93;1.20;;;;;;;;;;4987345;28;20203;-80
2023/12/25 08:21:32;;;;;;;1.87;1.00;;;;;;;;;;4972597;28;20297;-80
2023/12/25 08:23:59;;;;;;;1.90;1.00;;;;;;;;;;4988437;28;20247;-78
2023/12/25 08:26:25;;;;;;;3.63;1.20;;;;;;;;;;4988436;28;20214;-78
2023/12/25 08:28:52;;;;;;;3.00;1.10;;;;;;;;;;4989013;28;20180;-76
2023/12/25 08:31:18;;;;;;;2.80;1.30;;;;;;;;;;4986170;28;20274;-78
2023/12/25 08:33:44;;;;;;;2.20;1.00;;;;;;;;;;4988238;28;20192;-78
2023/12/25 08:36:11;;;;;;;1.53;1.13;;;;;;;;;;4990526;28;20232;-76
2023/12/25 08:38:37;;;;;;;2.20;1.10;;;;;;;;;;4989357;28;20269;-78
2023/12/25 08:41:04;;;;;;;4.67;1.20;;;;;;;;;;4987932;28;20302;-79
2023/12/25 08:43:30;;;;;;;2.33;1.20;;;;;;;;;;4985566;28;20195;-78
2023/12/25 08:45:57;;;;;;;2.73;1.10;;;;;;;;;;4988675;28;20338;-77
2023/12/25 08:48:23;;;;;;;4.53;1.70;;;;;;;;;;4988680;28;20180;-77
2023/12/25 08:50:50;;;;;;;4.47;2.00;;;;;;;;;;4988243;28;20208;-78
2023/12/25 08:53:16;;;;;;;15.27;9.30;;;;;;;;;;4971442;28;20266;-78
2023/12/25 08:55:42;;;;;;;12.17;5.87;;;;;;;;;;4973391;28;20184;-77
2023/12/25 08:58:08;;;;;;;6.80;3.13;;;;;;;;;;4991729;28;20272;-76
2023/12/25 09:00:34;;;;;;;2.47;1.80;;;;;;;;;;4987133;28;20307;-77
2023/12/25 09:03:01;;;;;;;4.17;2.43;;;;;;;;;;4987411;28;20215;-77
2023/12/25 09:05:27;;;;;;;4.30;1.73;;;;;;;;;;4986880;28;20235;-79
2023/12/25 09:07:53;;;;;;;2.07;1.27;;;;;;;;;;4990148;28;20224;-78
2023/12/25 09:10:19;;;;;;;1.83;1.13;;;;;;;;;;4988819;28;20192;-80
2023/12/25 09:12:47;;;;;;;2.33;1.13;;;;;;;;;;4989454;28;20184;-78
2023/12/25 09:15:13;;;;;;;1.57;1.30;;;;;;;;;;4964183;28;20210;-82
2023/12/25 09:17:40;;;;;;;1.10;1.00;;;;;;;;;;4985221;28;20219;-80
2023/12/25 09:20:06;;;;;;;1.73;1.03;;;;;;;;;;4978703;28;20180;-79
2023/12/25 09:22:33;;;;;;;2.20;1.00;;;;;;;;;;4987118;28;20192;-79
2023/12/25 09:24:59;;;;;;;1.90;1.00;;;;;;;;;;4984759;28;20231;-79
2023/12/25 09:27:25;;;;;;;2.03;1.10;;;;;;;;;;4991233;28;20175;-80
2023/12/25 09:29:51;;;;;;;1.80;0.90;;;;;;;;;;4972327;28;20184;-80
2023/12/25 09:32:17;;;;;;;1.20;1.00;;;;;;;;;;4992081;28;20219;-83
2023/12/25 09:34:44;;;;;;;2.17;1.17;;;;;;;;;;4992052;28;20275;-80
2023/12/25 09:37:10;;;;;;;1.03;0.87;;;;;;;;;;4993878;28;20203;-79
2023/12/25 09:39:36;;;;;;;1.57;0.90;;;;;;;;;;4974090;28;20575;-79
2023/12/25 09:42:02;;;;;;;2.10;1.90;;;;;;;;;;4993140;28;20623;-80
2023/12/25 09:44:29;;;;;;;2.20;1.40;;;;;;;;;;4990450;28;20261;-80
2023/12/25 09:46:56;;;;;;;1.57;1.23;;;;;;;;;;4992444;28;20577;-80
2023/12/25 09:49:23;;;;;;;1.43;1.17;;;;;;;;;;4993033;28;20238;-80
2023/12/25 09:51:50;;;;;;;0.90;0.90;;;;;;;;;;4975715;28;20918;-80
2023/12/25 09:54:16;;;;;;;2.00;0.97;;;;;;;;;;4993185;28;20267;-80
2023/12/25 09:56:43;;;;;;;1.83;1.50;;;;;;;;;;4993335;28;20664;-80
2023/12/25 09:59:10;;;;;;;1.30;1.00;;;;;;;;;;4976913;28;21056;-81
2023/12/25 10:01:37;;;;;;;2.30;0.90;;;;;;;;;;4983915;28;20221;-81
2023/12/25 10:04:05;;;;;;;1.23;0.77;;;;;;;;;;4960613;28;20191;-81
2023/12/25 10:06:31;;;;;;;1.17;0.83;;;;;;;;;;4992174;28;20207;-82
2023/12/25 10:08:57;;;;;;;0.80;0.80;;;;;;;;;;4973531;28;20192;-81
2023/12/25 10:11:24;;;;;;;2.17;1.07;;;;;;;;;;4987503;28;20675;-82
2023/12/25 10:13:50;;;;;;;3.90;2.70;;;;;;;;;;4956423;28;20196;-82
2023/12/25 10:16:16;;;;;;;2.30;1.50;;;;;;;;;;4973114;28;20206;-82
2023/12/25 10:18:42;;;;;;;1.73;1.03;;;;;;;;;;4973140;28;20192;-83
2023/12/25 10:21:10;;;;;;;1.47;1.00;;;;;;;;;;4969446;28;20242;-82
2023/12/25 10:23:36;;;;;;;1.53;0.90;;;;;;;;;;4985972;28;20202;-82
2023/12/25 10:26:03;;;;;;;1.70;1.00;;;;;;;;;;4969216;28;20215;-82
2023/12/25 10:28:31;;;;;;;1.50;0.90;;;;;;;;;;4972765;28;20190;-83
2023/12/25 10:31:08;;;;;;;0.97;0.83;;;;;;;;;;4973265;28;20231;-82
2023/12/25 10:33:36;;;;;;;1.10;1.00;;;;;;;;;;4973719;28;20267;-82
2023/12/25 10:36:06;;;;;;;1.37;1.10;;;;;;;;;;4972910;28;20205;-82
2023/12/25 10:38:38;;;;;;;1.60;1.27;;;;;;;;;;4973657;28;20470;-82
2023/12/25 10:41:27;;;;;;;2.87;1.10;;;;;;;;;;4973262;28;20199;-83
2023/12/25 10:44:02;;;;;;;1.57;1.40;;;;;;;;;;4981597;28;20214;-82
2023/12/25 10:46:37;;;;;;;2.27;1.50;;;;;;;;;;4982852;28;20218;-82
2023/12/25 10:49:04;;;;;;;2.37;1.40;;;;;;;;;;4992028;28;20218;-82
2023/12/25 10:51:34;;;;;;;2.90;1.73;;;;;;;;;;4990199;28;20207;-85
2023/12/25 10:54:01;;;;;;;3.30;2.43;;;;;;;;;;4972373;28;20199;-82
2023/12/25 10:56:28;;;;;;;5.37;3.50;;;;;;;;;;4989947;28;20616;-80
2023/12/25 10:58:58;;;;;;;4.53;2.30;;;;;;;;;;4987727;28;20196;-79
2023/12/25 11:01:25;;;;;;;3.00;1.90;;;;;;;;;;4988686;28;20693;-80
2023/12/25 11:03:53;;;;;;;1.80;1.60;;;;;;;;;;4972431;28;20552;-79
2023/12/25 11:06:20;;;;;;;2.13;1.50;;;;;;;;;;4969437;28;20556;-77
2023/12/25 11:08:47;;;;;;;2.17;1.40;;;;;;;;;;4984158;28;20208;-77
2023/12/25 11:11:13;;;;;;;2.30;1.30;;;;;;;;;;4985155;28;20204;-77
2023/12/25 11:13:40;;;;;;;1.60;1.33;;;;;;;;;;4987265;28;20548;-77
2023/12/25 11:16:07;;;;;;;2.07;1.37;;;;;;;;;;4984692;28;20189;-77
2023/12/25 11:18:37;;;;;;;2.10;1.23;;;;;;;;;;4988463;28;20184;-76
2023/12/25 11:21:11;;;;;;;1.37;1.27;;;;;;;;;;4986572;28;20207;-78
2023/12/25 11:23:42;;;;;;;1.87;1.40;;;;;;;;;;4988176;28;20198;-79
2023/12/25 11:26:12;;;;;;;2.10;1.73;;;;;;;;;;5001012;28;20660;-82
2023/12/25 11:28:41;;;;;;;2.13;1.77;;;;;;;;;;4979179;28;20296;-82
2023/12/25 11:31:08;;;;;;;2.70;1.70;;;;;;;;;;4993395;28;20196;-82
2023/12/25 11:33:44;;;;;;;3.67;1.60;;;;;;;;;;4974727;28;20204;-82
2023/12/25 11:36:15;;;;;;;2.83;1.60;;;;;;;;;;4974113;28;20196;-79
2023/12/25 11:38:42;;;;;;;1.87;1.50;;;;;;;;;;4972251;28;20194;-82
2023/12/25 11:41:14;;;;;;;3.47;1.70;;;;;;;;;;4969530;28;20212;-82
2023/12/25 11:43:40;;;;;;;1.73;1.63;;;;;;;;;;4972656;28;20195;-84
2023/12/25 11:46:10;;;;;;;2.70;1.80;;;;;;;;;;4959759;28;20224;-81
2023/12/25 11:48:36;;;;;;;5.30;1.67;;;;;;;;;;4977529;28;20179;-85
2023/12/25 11:51:19;;;;;;;2.37;1.70;;;;;;;;;;4977558;28;20715;-83
2023/12/25 11:53:45;;;;;;;1.83;1.37;;;;;;;;;;4973026;28;20265;-84
2023/12/25 11:56:12;;;;;;;1.67;1.30;;;;;;;;;;4958341;28;20211;-83
2023/12/25 11:58:39;;;;;;;1.40;1.30;;;;;;;;;;4976981;28;20184;-82
2023/12/25 12:01:06;;;;;;;1.60;1.13;;;;;;;;;;4963402;28;20282;-83
2023/12/25 12:03:32;;;;;;;1.27;1.17;;;;;;;;;;4969073;28;20577;-83
2023/12/25 12:05:58;;;;;;;1.97;1.30;;;;;;;;;;4974767;28;20212;-83
2023/12/25 12:08:26;;;;;;;1.53;1.20;;;;;;;;;;4988915;28;20318;-86
2023/12/25 12:10:53;;;;;;;1.57;1.40;;;;;;;;;;4972322;28;20222;-82
2023/12/25 12:13:20;;;;;;;1.37;1.20;;;;;;;;;;4973727;28;20223;-82
2023/12/25 12:15:46;;;;;;;2.00;1.77;;;;;;;;;;4993649;28;20680;-82
2023/12/25 12:18:13;;;;;;;2.00;1.50;;;;;;;;;;4985235;28;20191;-85
2023/12/25 12:20:39;;;;;;;1.60;1.40;;;;;;;;;;5021452;28;20227;-82
2023/12/25 12:23:12;;;;;;;2.80;1.60;;;;;;;;;;5005473;28;20208;-87
2023/12/25 12:25:40;;;;;;;2.50;1.60;;;;;;;;;;4992117;28;20583;-85
2023/12/25 12:28:08;;;;;;;2.00;1.47;;;;;;;;;;4979863;28;20262;-82
2023/12/25 12:30:36;;;;;;;11.80;10.17;;;;;;;;;;4991835;28;20229;-81
2023/12/25 12:33:03;;;;;;;2.90;2.50;;;;;;;;;;4986053;28;20242;-82
2023/12/25 12:35:30;;;;;;;1.83;1.50;;;;;;;;;;4995847;28;20198;-85
2023/12/25 12:37:56;;;;;;;1.80;1.40;;;;;;;;;;4959663;28;20191;-85
2023/12/25 12:40:24;;;;;;;2.23;1.70;;;;;;;;;;4989581;28;20215;-87
2023/12/25 12:42:51;;;;;;;3.13;1.30;;;;;;;;;;4969466;28;20188;-80
2023/12/25 12:45:18;;;;;;;1.67;1.40;;;;;;;;;;4985554;28;20808;-82
2023/12/25 12:47:45;;;;;;;2.10;1.43;;;;;;;;;;4976581;28;20955;-83
2023/12/25 12:50:15;;;;;;;2.83;1.53;;;;;;;;;;5000129;28;20252;-81
2023/12/25 12:52:41;;;;;;;2.20;1.40;;;;;;;;;;4968502;28;20187;-86
2023/12/25 12:55:08;;;;;;;1.50;1.30;;;;;;;;;;4973717;28;20204;-82
2023/12/25 12:57:34;;;;;;;2.07;1.43;;;;;;;;;;4971564;28;20211;-83
2023/12/25 13:00:00;;;;;;;1.33;1.23;;;;;;;;;;4982017;28;20188;-84
2023/12/25 13:02:28;;;;;;;1.80;1.30;;;;;;;;;;4970504;28;20204;-81
2023/12/25 13:04:54;;;;;;;1.60;1.30;;;;;;;;;;4983053;28;20192;-83
2023/12/25 13:07:20;;;;;;;2.17;1.40;;;;;;;;;;4955959;28;20190;-83
2023/12/25 13:09:46;;;;;;;1.67;1.47;;;;;;;;;;4985421;28;20243;-83
2023/12/25 13:12:13;;;;;;;1.70;1.40;;;;;;;;;;4951822;28;20276;-83
2023/12/25 13:14:39;;;;;;;1.90;1.70;;;;;;;;;;4983286;28;20228;-83
2023/12/25 13:17:05;;;;;;;1.43;1.30;;;;;;;;;;4955219;28;20191;-83
2023/12/25 13:19:31;;;;;;;1.47;1.37;;;;;;;;;;4984695;28;20188;-83
2023/12/25 13:21:57;;;;;;;2.00;1.40;;;;;;;;;;4979455;28;20246;-83
2023/12/25 13:24:25;;;;;;;1.30;1.20;;;;;;;;;;4983953;28;20235;-83
2023/12/25 13:26:51;;;;;;;1.30;1.20;;;;;;;;;;4959794;28;20212;-83
2023/12/25 13:29:17;;;;;;;1.43;1.20;;;;;;;;;;4987710;28;20192;-84
2023/12/25 13:31:43;;;;;;;2.40;1.90;;;;;;;;;;4969042;28;20200;-83
2023/12/25 13:34:10;;;;;;;3.43;2.03;;;;;;;;;;4966920;28;20283;-82
2023/12/25 13:36:36;;;;;;;4.33;3.07;;;;;;;;;;4967464;28;20934;-83
2023/12/25 13:39:04;;;;;;;6.60;4.70;;;;;;;;;;4954825;28;20187;-83
2023/12/25 13:41:31;;;;;;;2.87;2.23;;;;;;;;;;4983396;28;20235;-83
2023/12/25 13:43:57;;;;;;;9.77;5.70;;;;;;;;;;4969234;28;20645;-83
2023/12/25 13:46:24;;;;;;;4.50;2.23;;;;;;;;;;4964958;28;20220;-83
2023/12/25 13:48:54;;;;;;;2.90;2.00;;;;;;;;;;4970341;28;20282;-83
2023/12/25 13:51:20;;;;;;;1.73;1.50;;;;;;;;;;4984293;28;20211;-83
2023/12/25 13:53:46;;;;;;;2.07;1.60;;;;;;;;;;4982722;28;20210;-83
2023/12/25 13:56:12;;;;;;;1.80;1.40;;;;;;;;;;4969850;28;20191;-83
2023/12/25 13:58:38;;;;;;;2.20;1.50;;;;;;;;;;4986990;28;20304;-83
2023/12/25 14:01:05;;;;;;;1.53;1.37;;;;;;;;;;4986610;28;20206;-83
2023/12/25 14:03:31;;;;;;;2.20;1.40;;;;;;;;;;4970581;28;20567;-83
2023/12/25 14:05:58;;;;;;;2.30;1.50;;;;;;;;;;4966203;28;20219;-83
2023/12/25 14:08:24;;;;;;;1.50;1.40;;;;;;;;;;4967832;28;20192;-83
2023/12/25 14:10:51;;;;;;;1.80;1.70;;;;;;;;;;4983559;28;20492;-84
2023/12/25 14:13:17;;;;;;;3.23;1.53;;;;;;;;;;4967117;28;20200;-83
2023/12/25 14:15:43;;;;;;;2.40;1.30;;;;;;;;;;4966482;28;20624;-83
2023/12/25 14:18:10;;;;;;;1.40;1.30;;;;;;;;;;4968163;28;20219;-83
2023/12/25 14:20:36;;;;;;;2.00;1.57;;;;;;;;;;4968120;28;20219;-83
2023/12/25 14:23:03;;;;;;;1.80;1.33;;;;;;;;;;4985017;28;20195;-83
2023/12/25 14:25:29;;;;;;;1.77;1.67;;;;;;;;;;4985094;28;20215;-83
2023/12/25 14:27:55;;;;;;;2.97;1.50;;;;;;;;;;4966801;28;20579;-81
2023/12/25 14:30:21;;;;;;;2.07;1.47;;;;;;;;;;4983430;28;20188;-83
2023/12/25 14:32:50;;;;;;;1.73;1.33;;;;;;;;;;4982512;28;20180;-78
2023/12/25 14:35:17;;;;;;;2.10;1.50;;;;;;;;;;4981720;28;20184;-81
2023/12/25 14:37:44;;;;;;;2.10;1.60;;;;;;;;;;4963434;28;20607;-81
2023/12/25 14:40:12;;;;;;;1.40;1.30;;;;;;;;;;4951298;28;20593;-82
2023/12/25 14:42:38;;;;;;;1.37;1.27;;;;;;;;;;4966660;28;20199;-87